Archival Weather

Chicago O'Hare International

Chicago, Illinois (KORD)

Report from: Sunday, March 19, 2023 11:51 AM CDT
Current time: Friday, June 21, 2024 5:37 PM CDT

Current weather – Weather history – Daily summaries
Weather forecast

Temperature0.6°C (33.1°F)
Wind chill-5.2°C (22.6°F)
Dew point-12.8°C (9.0°F)
Winds 14 kts (7.2 m/s, 16.1 mph) West (260°)
Wind gusts 21 kts (10.8 m/s, 24.2 mph)
Visibility10 mi. (16.1 km)
Clouds Sky clear
Altimeter30.28 in.Hg (1025 mB)
Relative humidity36 %
Density altitude-2,155 ft. (-657 m)
Sea-level pressure102.6 kPa (1026 mB, 30.30 in.Hg)
Remarks System requires maintenance
Automated weather observing station with precipitation discriminator
Flight conditions Visual Meteorological Conditions
Raw dataKORD 191651Z 26014G21KT 10SM CLR 01/M13 A3028 RMK AO2 SLP262 T00061128 $
An error has occurred. This application may no longer respond until reloaded. Reload 🗙